sensor_id;sensor_type;location;lat;lon;timestamp;P1;durP1;ratioP1;P2;durP2;ratioP2
4517;SDS011;2271;49.464;11.070;2022-07-23T00:00:07;8.98;;;6.07;;
4517;SDS011;2271;49.464;11.070;2022-07-23T00:02:34;7.80;;;6.18;;
4517;SDS011;2271;49.464;11.070;2022-07-23T00:04:59;13.27;;;6.13;;
4517;SDS011;2271;49.464;11.070;2022-07-23T00:07:25;12.10;;;6.90;;
4517;SDS011;2271;49.464;11.070;2022-07-23T00:09:51;7.93;;;5.90;;
4517;SDS011;2271;49.464;11.070;2022-07-23T00:12:16;11.10;;;6.72;;
4517;SDS011;2271;49.464;11.070;2022-07-23T00:14:42;7.07;;;6.38;;
4517;SDS011;2271;49.464;11.070;2022-07-23T00:17:08;7.22;;;6.53;;
4517;SDS011;2271;49.464;11.070;2022-07-23T00:19:33;7.85;;;7.10;;
4517;SDS011;2271;49.464;11.070;2022-07-23T00:21:59;8.60;;;6.20;;
4517;SDS011;2271;49.464;11.070;2022-07-23T00:24:24;11.98;;;6.97;;
4517;SDS011;2271;49.464;11.070;2022-07-23T00:26:50;7.35;;;6.55;;
4517;SDS011;2271;49.464;11.070;2022-07-23T00:29:16;8.13;;;7.25;;
4517;SDS011;2271;49.464;11.070;2022-07-23T00:31:42;8.25;;;7.05;;
4517;SDS011;2271;49.464;11.070;2022-07-23T00:34:07;9.15;;;7.82;;
4517;SDS011;2271;49.464;11.070;2022-07-23T00:36:33;12.48;;;6.78;;
4517;SDS011;2271;49.464;11.070;2022-07-23T00:38:58;10.02;;;6.38;;
4517;SDS011;2271;49.464;11.070;2022-07-23T00:41:24;9.35;;;7.50;;
4517;SDS011;2271;49.464;11.070;2022-07-23T00:43:50;12.25;;;7.15;;
4517;SDS011;2271;49.464;11.070;2022-07-23T00:46:21;7.82;;;6.90;;
4517;SDS011;2271;49.464;11.070;2022-07-23T00:48:48;11.07;;;6.55;;
4517;SDS011;2271;49.464;11.070;2022-07-23T00:51:15;9.80;;;7.05;;
4517;SDS011;2271;49.464;11.070;2022-07-23T00:53:41;8.57;;;7.05;;
4517;SDS011;2271;49.464;11.070;2022-07-23T00:56:07;12.90;;;6.72;;
4517;SDS011;2271;49.464;11.070;2022-07-23T00:58:34;7.90;;;6.53;;
4517;SDS011;2271;49.464;11.070;2022-07-23T01:01:00;11.70;;;6.85;;
4517;SDS011;2271;49.464;11.070;2022-07-23T01:03:26;9.23;;;6.93;;
4517;SDS011;2271;49.464;11.070;2022-07-23T01:05:52;7.18;;;6.47;;
4517;SDS011;2271;49.464;11.070;2022-07-23T01:08:18;12.05;;;7.47;;
4517;SDS011;2271;49.464;11.070;2022-07-23T01:10:44;8.65;;;6.15;;
4517;SDS011;2271;49.464;11.070;2022-07-23T01:13:11;9.40;;;6.72;;
4517;SDS011;2271;49.464;11.070;2022-07-23T01:15:37;9.52;;;6.93;;
4517;SDS011;2271;49.464;11.070;2022-07-23T01:18:04;8.05;;;7.03;;
4517;SDS011;2271;49.464;11.070;2022-07-23T01:20:30;8.95;;;7.35;;
4517;SDS011;2271;49.464;11.070;2022-07-23T01:22:57;13.50;;;7.15;;
4517;SDS011;2271;49.464;11.070;2022-07-23T01:25:23;11.20;;;6.72;;
4517;SDS011;2271;49.464;11.070;2022-07-23T01:27:49;11.52;;;6.80;;
4517;SDS011;2271;49.464;11.070;2022-07-23T01:30:16;8.30;;;7.38;;
4517;SDS011;2271;49.464;11.070;2022-07-23T01:32:42;7.25;;;6.55;;
4517;SDS011;2271;49.464;11.070;2022-07-23T01:35:08;7.63;;;6.45;;
4517;SDS011;2271;49.464;11.070;2022-07-23T01:37:34;8.77;;;7.63;;
4517;SDS011;2271;49.464;11.070;2022-07-23T01:40:00;13.63;;;8.02;;
4517;SDS011;2271;49.464;11.070;2022-07-23T01:42:26;10.57;;;8.13;;
4517;SDS011;2271;49.464;11.070;2022-07-23T01:44:52;11.60;;;8.38;;
4517;SDS011;2271;49.464;11.070;2022-07-23T01:47:17;11.57;;;8.73;;
4517;SDS011;2271;49.464;11.070;2022-07-23T01:49:43;10.93;;;9.15;;
4517;SDS011;2271;49.464;11.070;2022-07-23T01:52:09;11.73;;;8.52;;
4517;SDS011;2271;49.464;11.070;2022-07-23T01:54:36;10.63;;;7.95;;
4517;SDS011;2271;49.464;11.070;2022-07-23T01:57:03;11.85;;;8.20;;
4517;SDS011;2271;49.464;11.070;2022-07-23T01:59:29;11.88;;;8.98;;
4517;SDS011;2271;49.464;11.070;2022-07-23T02:01:55;9.40;;;8.50;;
4517;SDS011;2271;49.464;11.070;2022-07-23T02:04:21;9.93;;;7.78;;
4517;SDS011;2271;49.464;11.070;2022-07-23T02:06:47;12.55;;;8.40;;
4517;SDS011;2271;49.464;11.070;2022-07-23T02:09:13;10.75;;;7.55;;
4517;SDS011;2271;49.464;11.070;2022-07-23T02:11:39;12.55;;;8.00;;
4517;SDS011;2271;49.464;11.070;2022-07-23T02:14:05;8.63;;;7.50;;
4517;SDS011;2271;49.464;11.070;2022-07-23T02:16:31;10.90;;;7.65;;
4517;SDS011;2271;49.464;11.070;2022-07-23T02:18:57;7.90;;;7.07;;
4517;SDS011;2271;49.464;11.070;2022-07-23T02:21:22;8.48;;;6.78;;
4517;SDS011;2271;49.464;11.070;2022-07-23T02:23:48;8.77;;;7.18;;
4517;SDS011;2271;49.464;11.070;2022-07-23T02:26:14;9.95;;;7.00;;
4517;SDS011;2271;49.464;11.070;2022-07-23T02:28:40;11.52;;;8.07;;
4517;SDS011;2271;49.464;11.070;2022-07-23T02:31:05;8.57;;;7.65;;
4517;SDS011;2271;49.464;11.070;2022-07-23T02:33:32;11.82;;;7.68;;
4517;SDS011;2271;49.464;11.070;2022-07-23T02:35:58;10.60;;;7.40;;
4517;SDS011;2271;49.464;11.070;2022-07-23T02:38:24;9.02;;;8.00;;
4517;SDS011;2271;49.464;11.070;2022-07-23T02:40:49;11.55;;;8.35;;
4517;SDS011;2271;49.464;11.070;2022-07-23T02:43:15;13.18;;;8.27;;
4517;SDS011;2271;49.464;11.070;2022-07-23T02:45:41;8.80;;;7.93;;
4517;SDS011;2271;49.464;11.070;2022-07-23T02:48:06;9.45;;;7.85;;
4517;SDS011;2271;49.464;11.070;2022-07-23T02:50:32;9.40;;;6.93;;
4517;SDS011;2271;49.464;11.070;2022-07-23T02:52:58;10.95;;;7.32;;
4517;SDS011;2271;49.464;11.070;2022-07-23T02:55:23;8.88;;;7.97;;
4517;SDS011;2271;49.464;11.070;2022-07-23T02:57:49;12.25;;;7.13;;
4517;SDS011;2271;49.464;11.070;2022-07-23T03:00:15;7.93;;;7.13;;
4517;SDS011;2271;49.464;11.070;2022-07-23T03:02:41;7.95;;;7.15;;
4517;SDS011;2271;49.464;11.070;2022-07-23T03:05:07;8.57;;;7.35;;
4517;SDS011;2271;49.464;11.070;2022-07-23T03:07:33;10.13;;;7.47;;
4517;SDS011;2271;49.464;11.070;2022-07-23T03:09:58;8.48;;;7.18;;
4517;SDS011;2271;49.464;11.070;2022-07-23T03:12:24;11.52;;;7.57;;
4517;SDS011;2271;49.464;11.070;2022-07-23T03:14:50;8.13;;;7.10;;
4517;SDS011;2271;49.464;11.070;2022-07-23T03:17:15;9.98;;;7.20;;
4517;SDS011;2271;49.464;11.070;2022-07-23T03:19:41;9.35;;;7.38;;
4517;SDS011;2271;49.464;11.070;2022-07-23T03:22:07;12.45;;;7.25;;
4517;SDS011;2271;49.464;11.070;2022-07-23T03:24:33;10.80;;;7.55;;
4517;SDS011;2271;49.464;11.070;2022-07-23T03:27:17;8.95;;;6.88;;
4517;SDS011;2271;49.464;11.070;2022-07-23T03:29:43;8.85;;;7.32;;
4517;SDS011;2271;49.464;11.070;2022-07-23T03:32:08;9.57;;;7.45;;
4517;SDS011;2271;49.464;11.070;2022-07-23T03:34:34;9.95;;;8.38;;
4517;SDS011;2271;49.464;11.070;2022-07-23T03:37:00;12.25;;;7.78;;
4517;SDS011;2271;49.464;11.070;2022-07-23T03:39:26;9.18;;;7.43;;
4517;SDS011;2271;49.464;11.070;2022-07-23T03:41:52;9.07;;;7.38;;
4517;SDS011;2271;49.464;11.070;2022-07-23T03:44:17;7.65;;;6.95;;
4517;SDS011;2271;49.464;11.070;2022-07-23T03:46:43;10.77;;;7.70;;
4517;SDS011;2271;49.464;11.070;2022-07-23T03:49:08;8.73;;;7.82;;
4517;SDS011;2271;49.464;11.070;2022-07-23T03:51:34;7.75;;;6.97;;
4517;SDS011;2271;49.464;11.070;2022-07-23T03:54:00;9.73;;;7.22;;
4517;SDS011;2271;49.464;11.070;2022-07-23T03:56:25;8.32;;;7.45;;
4517;SDS011;2271;49.464;11.070;2022-07-23T03:58:51;9.90;;;7.93;;
4517;SDS011;2271;49.464;11.070;2022-07-23T04:01:17;9.10;;;8.05;;
4517;SDS011;2271;49.464;11.070;2022-07-23T04:03:42;9.45;;;7.85;;
4517;SDS011;2271;49.464;11.070;2022-07-23T04:06:08;11.02;;;7.47;;
4517;SDS011;2271;49.464;11.070;2022-07-23T04:08:33;8.85;;;7.90;;
4517;SDS011;2271;49.464;11.070;2022-07-23T04:10:59;8.70;;;7.80;;
4517;SDS011;2271;49.464;11.070;2022-07-23T04:13:25;9.85;;;8.88;;
4517;SDS011;2271;49.464;11.070;2022-07-23T04:15:50;8.15;;;7.18;;
4517;SDS011;2271;49.464;11.070;2022-07-23T04:18:16;10.32;;;8.50;;
4517;SDS011;2271;49.464;11.070;2022-07-23T04:20:45;13.05;;;8.63;;
4517;SDS011;2271;49.464;11.070;2022-07-23T04:23:11;10.13;;;8.43;;
4517;SDS011;2271;49.464;11.070;2022-07-23T04:25:37;9.35;;;7.30;;
4517;SDS011;2271;49.464;11.070;2022-07-23T04:28:03;14.18;;;7.82;;
4517;SDS011;2271;49.464;11.070;2022-07-23T04:30:29;9.00;;;7.65;;
4517;SDS011;2271;49.464;11.070;2022-07-23T04:32:54;9.50;;;7.85;;
4517;SDS011;2271;49.464;11.070;2022-07-23T04:35:20;9.18;;;7.50;;
4517;SDS011;2271;49.464;11.070;2022-07-23T04:37:46;8.30;;;7.32;;
4517;SDS011;2271;49.464;11.070;2022-07-23T04:40:12;7.80;;;7.10;;
4517;SDS011;2271;49.464;11.070;2022-07-23T04:42:38;8.43;;;6.35;;
4517;SDS011;2271;49.464;11.070;2022-07-23T04:45:04;9.07;;;5.90;;
4517;SDS011;2271;49.464;11.070;2022-07-23T04:47:30;7.93;;;6.90;;
4517;SDS011;2271;49.464;11.070;2022-07-23T04:49:56;10.57;;;7.15;;
4517;SDS011;2271;49.464;11.070;2022-07-23T04:52:22;7.22;;;6.45;;
4517;SDS011;2271;49.464;11.070;2022-07-23T04:54:48;7.45;;;6.75;;
4517;SDS011;2271;49.464;11.070;2022-07-23T04:57:14;8.77;;;6.55;;
4517;SDS011;2271;49.464;11.070;2022-07-23T04:59:39;8.98;;;6.10;;
4517;SDS011;2271;49.464;11.070;2022-07-23T05:02:05;6.18;;;5.57;;
4517;SDS011;2271;49.464;11.070;2022-07-23T05:04:31;7.15;;;5.45;;
4517;SDS011;2271;49.464;11.070;2022-07-23T05:06:57;5.95;;;5.35;;
4517;SDS011;2271;49.464;11.070;2022-07-23T05:09:23;6.30;;;5.70;;
4517;SDS011;2271;49.464;11.070;2022-07-23T05:11:48;7.63;;;5.25;;
4517;SDS011;2271;49.464;11.070;2022-07-23T05:14:14;6.03;;;5.20;;
4517;SDS011;2271;49.464;11.070;2022-07-23T05:16:40;6.78;;;5.38;;
4517;SDS011;2271;49.464;11.070;2022-07-23T05:19:06;7.57;;;5.32;;
4517;SDS011;2271;49.464;11.070;2022-07-23T05:21:31;5.68;;;5.13;;
4517;SDS011;2271;49.464;11.070;2022-07-23T05:23:58;7.03;;;4.90;;
4517;SDS011;2271;49.464;11.070;2022-07-23T05:26:24;5.28;;;4.88;;
4517;SDS011;2271;49.464;11.070;2022-07-23T05:28:50;5.68;;;4.78;;
4517;SDS011;2271;49.464;11.070;2022-07-23T05:31:16;6.00;;;4.28;;
4517;SDS011;2271;49.464;11.070;2022-07-23T05:33:41;10.32;;;4.72;;
4517;SDS011;2271;49.464;11.070;2022-07-23T05:36:07;5.30;;;4.80;;
4517;SDS011;2271;49.464;11.070;2022-07-23T05:38:33;4.75;;;4.35;;
4517;SDS011;2271;49.464;11.070;2022-07-23T05:40:59;5.50;;;4.50;;
4517;SDS011;2271;49.464;11.070;2022-07-23T05:43:26;6.05;;;4.32;;
4517;SDS011;2271;49.464;11.070;2022-07-23T05:45:52;5.25;;;4.47;;
4517;SDS011;2271;49.464;11.070;2022-07-23T05:48:18;7.95;;;4.38;;
4517;SDS011;2271;49.464;11.070;2022-07-23T05:50:44;4.53;;;4.13;;
4517;SDS011;2271;49.464;11.070;2022-07-23T05:53:10;5.13;;;4.68;;
4517;SDS011;2271;49.464;11.070;2022-07-23T05:55:35;4.40;;;4.00;;
4517;SDS011;2271;49.464;11.070;2022-07-23T05:58:01;4.60;;;4.20;;
4517;SDS011;2271;49.464;11.070;2022-07-23T06:00:27;4.97;;;4.10;;
4517;SDS011;2271;49.464;11.070;2022-07-23T06:02:53;8.80;;;4.60;;
4517;SDS011;2271;49.464;11.070;2022-07-23T06:05:19;6.95;;;4.15;;
4517;SDS011;2271;49.464;11.070;2022-07-23T06:07:45;3.97;;;3.67;;
4517;SDS011;2271;49.464;11.070;2022-07-23T06:10:10;4.45;;;3.78;;
4517;SDS011;2271;49.464;11.070;2022-07-23T06:12:36;3.92;;;3.60;;
4517;SDS011;2271;49.464;11.070;2022-07-23T06:15:02;5.95;;;3.72;;
4517;SDS011;2271;49.464;11.070;2022-07-23T06:17:28;5.05;;;3.67;;
4517;SDS011;2271;49.464;11.070;2022-07-23T06:19:54;4.05;;;3.72;;
4517;SDS011;2271;49.464;11.070;2022-07-23T06:22:21;5.90;;;4.10;;
4517;SDS011;2271;49.464;11.070;2022-07-23T06:24:48;4.32;;;3.92;;
4517;SDS011;2271;49.464;11.070;2022-07-23T06:27:14;4.82;;;4.40;;
4517;SDS011;2271;49.464;11.070;2022-07-23T06:29:40;3.92;;;3.50;;
4517;SDS011;2271;49.464;11.070;2022-07-23T06:32:06;3.58;;;3.25;;
4517;SDS011;2271;49.464;11.070;2022-07-23T06:34:32;3.53;;;3.22;;
4517;SDS011;2271;49.464;11.070;2022-07-23T06:36:58;4.13;;;3.72;;
4517;SDS011;2271;49.464;11.070;2022-07-23T06:39:24;5.85;;;3.58;;
4517;SDS011;2271;49.464;11.070;2022-07-23T06:41:50;4.20;;;3.78;;
4517;SDS011;2271;49.464;11.070;2022-07-23T06:44:16;4.15;;;3.75;;
4517;SDS011;2271;49.464;11.070;2022-07-23T06:46:42;5.72;;;3.92;;
4517;SDS011;2271;49.464;11.070;2022-07-23T06:49:08;4.47;;;4.03;;
4517;SDS011;2271;49.464;11.070;2022-07-23T06:51:34;4.82;;;4.13;;
4517;SDS011;2271;49.464;11.070;2022-07-23T06:53:59;4.25;;;3.88;;
4517;SDS011;2271;49.464;11.070;2022-07-23T06:56:25;4.10;;;3.78;;
4517;SDS011;2271;49.464;11.070;2022-07-23T06:58:51;3.55;;;3.17;;
4517;SDS011;2271;49.464;11.070;2022-07-23T07:01:17;5.93;;;3.83;;
4517;SDS011;2271;49.464;11.070;2022-07-23T07:03:42;4.15;;;3.80;;
4517;SDS011;2271;49.464;11.070;2022-07-23T07:06:08;4.53;;;4.13;;
4517;SDS011;2271;49.464;11.070;2022-07-23T07:08:34;5.20;;;3.85;;
4517;SDS011;2271;49.464;11.070;2022-07-23T07:11:00;9.13;;;4.35;;
4517;SDS011;2271;49.464;11.070;2022-07-23T07:13:25;5.25;;;4.03;;
4517;SDS011;2271;49.464;11.070;2022-07-23T07:15:51;5.00;;;4.32;;
4517;SDS011;2271;49.464;11.070;2022-07-23T07:18:16;5.50;;;5.00;;
4517;SDS011;2271;49.464;11.070;2022-07-23T07:20:42;18.52;;;4.68;;
4517;SDS011;2271;49.464;11.070;2022-07-23T07:23:08;21.00;;;5.05;;
4517;SDS011;2271;49.464;11.070;2022-07-23T07:25:34;18.08;;;5.03;;
4517;SDS011;2271;49.464;11.070;2022-07-23T07:27:59;9.15;;;4.65;;
4517;SDS011;2271;49.464;11.070;2022-07-23T07:30:25;6.78;;;5.20;;
4517;SDS011;2271;49.464;11.070;2022-07-23T07:32:51;6.53;;;5.43;;
4517;SDS011;2271;49.464;11.070;2022-07-23T07:35:16;5.55;;;5.05;;
4517;SDS011;2271;49.464;11.070;2022-07-23T07:37:42;10.00;;;5.03;;
4517;SDS011;2271;49.464;11.070;2022-07-23T07:40:08;6.75;;;4.47;;
4517;SDS011;2271;49.464;11.070;2022-07-23T07:42:34;5.47;;;4.97;;
4517;SDS011;2271;49.464;11.070;2022-07-23T07:45:00;8.98;;;5.28;;
4517;SDS011;2271;49.464;11.070;2022-07-23T07:47:25;7.20;;;5.07;;
4517;SDS011;2271;49.464;11.070;2022-07-23T07:49:51;6.82;;;5.07;;
4517;SDS011;2271;49.464;11.070;2022-07-23T07:52:17;6.63;;;4.82;;
4517;SDS011;2271;49.464;11.070;2022-07-23T07:54:42;8.55;;;4.93;;
4517;SDS011;2271;49.464;11.070;2022-07-23T07:57:08;6.03;;;5.13;;
4517;SDS011;2271;49.464;11.070;2022-07-23T07:59:34;6.57;;;5.68;;
4517;SDS011;2271;49.464;11.070;2022-07-23T08:02:01;7.05;;;5.28;;
4517;SDS011;2271;49.464;11.070;2022-07-23T08:04:27;9.55;;;5.80;;
4517;SDS011;2271;49.464;11.070;2022-07-23T08:06:53;9.10;;;5.40;;
4517;SDS011;2271;49.464;11.070;2022-07-23T08:09:18;7.80;;;5.80;;
4517;SDS011;2271;49.464;11.070;2022-07-23T08:11:44;6.53;;;5.93;;
4517;SDS011;2271;49.464;11.070;2022-07-23T08:14:10;5.82;;;5.32;;
4517;SDS011;2271;49.464;11.070;2022-07-23T08:16:36;7.95;;;5.68;;
4517;SDS011;2271;49.464;11.070;2022-07-23T08:19:02;11.63;;;6.18;;
4517;SDS011;2271;49.464;11.070;2022-07-23T08:21:27;7.65;;;5.88;;
4517;SDS011;2271;49.464;11.070;2022-07-23T08:23:53;6.15;;;5.53;;
4517;SDS011;2271;49.464;11.070;2022-07-23T08:26:18;7.75;;;5.22;;
4517;SDS011;2271;49.464;11.070;2022-07-23T08:28:44;6.55;;;4.93;;
4517;SDS011;2271;49.464;11.070;2022-07-23T08:31:10;6.65;;;5.22;;
4517;SDS011;2271;49.464;11.070;2022-07-23T08:33:36;6.78;;;6.07;;
4517;SDS011;2271;49.464;11.070;2022-07-23T08:36:02;5.97;;;4.97;;
4517;SDS011;2271;49.464;11.070;2022-07-23T08:38:30;6.07;;;5.47;;
4517;SDS011;2271;49.464;11.070;2022-07-23T08:40:56;6.38;;;5.78;;
4517;SDS011;2271;49.464;11.070;2022-07-23T08:43:26;5.45;;;4.93;;
4517;SDS011;2271;49.464;11.070;2022-07-23T08:45:54;7.18;;;6.20;;
4517;SDS011;2271;49.464;11.070;2022-07-23T08:48:22;9.52;;;5.70;;
4517;SDS011;2271;49.464;11.070;2022-07-23T08:50:50;7.50;;;5.07;;
4517;SDS011;2271;49.464;11.070;2022-07-23T08:53:20;5.82;;;4.75;;
4517;SDS011;2271;49.464;11.070;2022-07-23T08:55:47;6.35;;;4.18;;
4517;SDS011;2271;49.464;11.070;2022-07-23T08:58:15;7.03;;;4.43;;
4517;SDS011;2271;49.464;11.070;2022-07-23T09:00:41;5.82;;;4.88;;
4517;SDS011;2271;49.464;11.070;2022-07-23T09:03:07;5.85;;;4.60;;
4517;SDS011;2271;49.464;11.070;2022-07-23T09:05:39;11.43;;;8.95;;
4517;SDS011;2271;49.464;11.070;2022-07-23T09:08:12;5.93;;;4.43;;
4517;SDS011;2271;49.464;11.070;2022-07-23T09:10:58;6.68;;;5.20;;
4517;SDS011;2271;49.464;11.070;2022-07-23T09:13:29;5.15;;;4.65;;
4517;SDS011;2271;49.464;11.070;2022-07-23T09:18:41;7.43;;;5.15;;
4517;SDS011;2271;49.464;11.070;2022-07-23T09:24:07;6.70;;;4.60;;
4517;SDS011;2271;49.464;11.070;2022-07-23T09:26:40;7.22;;;4.47;;
4517;SDS011;2271;49.464;11.070;2022-07-23T09:29:08;6.50;;;4.45;;
4517;SDS011;2271;49.464;11.070;2022-07-23T09:31:54;6.03;;;4.72;;
4517;SDS011;2271;49.464;11.070;2022-07-23T09:34:43;4.15;;;3.75;;
4517;SDS011;2271;49.464;11.070;2022-07-23T09:37:14;4.18;;;3.72;;
4517;SDS011;2271;49.464;11.070;2022-07-23T09:39:45;4.97;;;4.20;;
4517;SDS011;2271;49.464;11.070;2022-07-23T09:44:44;7.07;;;4.55;;
4517;SDS011;2271;49.464;11.070;2022-07-23T09:47:12;4.45;;;4.05;;
4517;SDS011;2271;49.464;11.070;2022-07-23T09:49:38;5.82;;;4.38;;
4517;SDS011;2271;49.464;11.070;2022-07-23T09:52:04;7.05;;;4.93;;
4517;SDS011;2271;49.464;11.070;2022-07-23T09:54:34;4.50;;;3.88;;
4517;SDS011;2271;49.464;11.070;2022-07-23T09:57:06;4.90;;;4.20;;
4517;SDS011;2271;49.464;11.070;2022-07-23T09:59:43;5.20;;;4.57;;
4517;SDS011;2271;49.464;11.070;2022-07-23T10:02:12;7.32;;;5.15;;
4517;SDS011;2271;49.464;11.070;2022-07-23T10:04:39;4.72;;;4.20;;
4517;SDS011;2271;49.464;11.070;2022-07-23T10:07:07;16.55;;;4.85;;
4517;SDS011;2271;49.464;11.070;2022-07-23T10:09:39;10.10;;;4.40;;
4517;SDS011;2271;49.464;11.070;2022-07-23T10:12:09;14.10;;;4.20;;
4517;SDS011;2271;49.464;11.070;2022-07-23T10:14:42;5.57;;;4.53;;
4517;SDS011;2271;49.464;11.070;2022-07-23T10:17:09;7.40;;;4.90;;
4517;SDS011;2271;49.464;11.070;2022-07-23T10:19:36;7.05;;;5.18;;
4517;SDS011;2271;49.464;11.070;2022-07-23T10:22:08;7.97;;;5.03;;
4517;SDS011;2271;49.464;11.070;2022-07-23T10:27:22;4.50;;;4.07;;
4517;SDS011;2271;49.464;11.070;2022-07-23T10:30:02;6.28;;;4.70;;
4517;SDS011;2271;49.464;11.070;2022-07-23T10:38:19;6.28;;;4.97;;
4517;SDS011;2271;49.464;11.070;2022-07-23T10:41:04;6.50;;;4.90;;
4517;SDS011;2271;49.464;11.070;2022-07-23T10:43:30;6.18;;;4.78;;
4517;SDS011;2271;49.464;11.070;2022-07-23T10:45:56;7.45;;;5.40;;
4517;SDS011;2271;49.464;11.070;2022-07-23T10:52:15;8.40;;;5.65;;
4517;SDS011;2271;49.464;11.070;2022-07-23T10:57:07;7.57;;;5.70;;
4517;SDS011;2271;49.464;11.070;2022-07-23T11:02:38;5.65;;;4.53;;
4517;SDS011;2271;49.464;11.070;2022-07-23T11:05:06;6.82;;;5.22;;
4517;SDS011;2271;49.464;11.070;2022-07-23T11:07:34;8.68;;;5.47;;
4517;SDS011;2271;49.464;11.070;2022-07-23T11:10:01;5.63;;;4.78;;
4517;SDS011;2271;49.464;11.070;2022-07-23T11:20:16;7.07;;;5.32;;
4517;SDS011;2271;49.464;11.070;2022-07-23T11:22:50;7.03;;;5.53;;
4517;SDS011;2271;49.464;11.070;2022-07-23T11:27:49;5.43;;;4.82;;
4517;SDS011;2271;49.464;11.070;2022-07-23T11:32:54;5.82;;;5.22;;
4517;SDS011;2271;49.464;11.070;2022-07-23T11:35:42;5.70;;;4.90;;
4517;SDS011;2271;49.464;11.070;2022-07-23T11:40:39;6.55;;;5.03;;
4517;SDS011;2271;49.464;11.070;2022-07-23T11:43:09;5.93;;;4.88;;
4517;SDS011;2271;49.464;11.070;2022-07-23T11:45:39;9.05;;;5.22;;
4517;SDS011;2271;49.464;11.070;2022-07-23T11:48:06;5.25;;;4.75;;
4517;SDS011;2271;49.464;11.070;2022-07-23T11:50:34;4.65;;;4.13;;
4517;SDS011;2271;49.464;11.070;2022-07-23T11:53:01;5.32;;;4.60;;
4517;SDS011;2271;49.464;11.070;2022-07-23T11:55:27;5.43;;;4.60;;
4517;SDS011;2271;49.464;11.070;2022-07-23T11:57:54;6.72;;;4.75;;
4517;SDS011;2271;49.464;11.070;2022-07-23T12:00:21;5.88;;;5.18;;
4517;SDS011;2271;49.464;11.070;2022-07-23T12:02:50;4.97;;;4.47;;
4517;SDS011;2271;49.464;11.070;2022-07-23T12:05:22;4.85;;;4.35;;
4517;SDS011;2271;49.464;11.070;2022-07-23T12:07:50;6.10;;;4.55;;
4517;SDS011;2271;49.464;11.070;2022-07-23T12:10:18;4.85;;;3.92;;
4517;SDS011;2271;49.464;11.070;2022-07-23T12:15:27;5.38;;;4.80;;
4517;SDS011;2271;49.464;11.070;2022-07-23T12:18:04;5.05;;;4.30;;
4517;SDS011;2271;49.464;11.070;2022-07-23T12:20:33;6.18;;;4.57;;
4517;SDS011;2271;49.464;11.070;2022-07-23T12:23:03;7.93;;;6.07;;
4517;SDS011;2271;49.464;11.070;2022-07-23T12:25:32;5.68;;;5.07;;
4517;SDS011;2271;49.464;11.070;2022-07-23T12:28:06;5.22;;;4.72;;
4517;SDS011;2271;49.464;11.070;2022-07-23T12:30:33;6.43;;;5.45;;
4517;SDS011;2271;49.464;11.070;2022-07-23T12:33:02;5.25;;;4.68;;
4517;SDS011;2271;49.464;11.070;2022-07-23T12:35:33;5.65;;;4.95;;
4517;SDS011;2271;49.464;11.070;2022-07-23T12:38:06;8.18;;;6.05;;
4517;SDS011;2271;49.464;11.070;2022-07-23T12:40:34;9.70;;;5.40;;
4517;SDS011;2271;49.464;11.070;2022-07-23T12:43:03;5.38;;;4.88;;
4517;SDS011;2271;49.464;11.070;2022-07-23T12:45:50;8.27;;;4.78;;
4517;SDS011;2271;49.464;11.070;2022-07-23T12:53:17;5.47;;;4.97;;
4517;SDS011;2271;49.464;11.070;2022-07-23T12:55:47;5.90;;;5.18;;
4517;SDS011;2271;49.464;11.070;2022-07-23T12:58:14;10.27;;;5.97;;
4517;SDS011;2271;49.464;11.070;2022-07-23T13:03:30;6.57;;;5.30;;
4517;SDS011;2271;49.464;11.070;2022-07-23T13:05:57;6.93;;;5.10;;
4517;SDS011;2271;49.464;11.070;2022-07-23T13:08:24;5.53;;;4.97;;
4517;SDS011;2271;49.464;11.070;2022-07-23T13:10:51;5.30;;;4.90;;
4517;SDS011;2271;49.464;11.070;2022-07-23T13:13:25;5.53;;;5.03;;
4517;SDS011;2271;49.464;11.070;2022-07-23T13:15:52;6.07;;;4.90;;
4517;SDS011;2271;49.464;11.070;2022-07-23T13:18:18;6.10;;;5.30;;
4517;SDS011;2271;49.464;11.070;2022-07-23T13:20:45;6.70;;;5.68;;
4517;SDS011;2271;49.464;11.070;2022-07-23T13:23:12;7.18;;;4.80;;
4517;SDS011;2271;49.464;11.070;2022-07-23T13:25:38;5.50;;;4.90;;
4517;SDS011;2271;49.464;11.070;2022-07-23T13:28:04;5.20;;;4.70;;
4517;SDS011;2271;49.464;11.070;2022-07-23T13:30:30;7.20;;;4.95;;
4517;SDS011;2271;49.464;11.070;2022-07-23T13:32:55;5.38;;;4.88;;
4517;SDS011;2271;49.464;11.070;2022-07-23T13:35:21;5.93;;;5.43;;
4517;SDS011;2271;49.464;11.070;2022-07-23T13:37:48;6.38;;;4.78;;
4517;SDS011;2271;49.464;11.070;2022-07-23T13:40:13;6.32;;;4.93;;
4517;SDS011;2271;49.464;11.070;2022-07-23T13:42:39;6.72;;;4.80;;
4517;SDS011;2271;49.464;11.070;2022-07-23T13:45:07;5.78;;;4.30;;
4517;SDS011;2271;49.464;11.070;2022-07-23T13:47:34;6.63;;;5.63;;
4517;SDS011;2271;49.464;11.070;2022-07-23T13:49:59;7.68;;;4.82;;
4517;SDS011;2271;49.464;11.070;2022-07-23T13:52:25;6.00;;;4.80;;
4517;SDS011;2271;49.464;11.070;2022-07-23T13:54:51;6.38;;;5.47;;
4517;SDS011;2271;49.464;11.070;2022-07-23T13:57:17;6.25;;;4.97;;
4517;SDS011;2271;49.464;11.070;2022-07-23T13:59:42;5.60;;;5.10;;
4517;SDS011;2271;49.464;11.070;2022-07-23T14:02:09;5.78;;;5.05;;
4517;SDS011;2271;49.464;11.070;2022-07-23T14:04:38;6.78;;;5.57;;
4517;SDS011;2271;49.464;11.070;2022-07-23T14:07:03;5.53;;;4.90;;
4517;SDS011;2271;49.464;11.070;2022-07-23T14:09:29;5.80;;;5.30;;
4517;SDS011;2271;49.464;11.070;2022-07-23T14:11:58;5.78;;;5.10;;
4517;SDS011;2271;49.464;11.070;2022-07-23T14:14:24;5.88;;;5.28;;
4517;SDS011;2271;49.464;11.070;2022-07-23T14:16:50;5.65;;;5.05;;
4517;SDS011;2271;49.464;11.070;2022-07-23T14:19:16;6.35;;;4.88;;
4517;SDS011;2271;49.464;11.070;2022-07-23T14:21:41;5.78;;;5.22;;
4517;SDS011;2271;49.464;11.070;2022-07-23T14:24:08;7.60;;;5.53;;
4517;SDS011;2271;49.464;11.070;2022-07-23T14:26:33;6.05;;;5.45;;
4517;SDS011;2271;49.464;11.070;2022-07-23T14:28:59;7.40;;;5.13;;
4517;SDS011;2271;49.464;11.070;2022-07-23T14:31:25;6.38;;;5.78;;
4517;SDS011;2271;49.464;11.070;2022-07-23T14:33:51;5.25;;;4.75;;
4517;SDS011;2271;49.464;11.070;2022-07-23T14:36:17;5.10;;;4.60;;
4517;SDS011;2271;49.464;11.070;2022-07-23T14:38:42;5.32;;;4.82;;
4517;SDS011;2271;49.464;11.070;2022-07-23T14:41:08;4.95;;;4.50;;
4517;SDS011;2271;49.464;11.070;2022-07-23T14:43:34;5.57;;;5.07;;
4517;SDS011;2271;49.464;11.070;2022-07-23T14:46:00;7.40;;;5.03;;
4517;SDS011;2271;49.464;11.070;2022-07-23T14:48:26;6.60;;;4.85;;
4517;SDS011;2271;49.464;11.070;2022-07-23T14:50:52;5.32;;;4.82;;
4517;SDS011;2271;49.464;11.070;2022-07-23T14:53:17;8.95;;;5.35;;
4517;SDS011;2271;49.464;11.070;2022-07-23T14:55:43;4.97;;;4.50;;
4517;SDS011;2271;49.464;11.070;2022-07-23T14:58:09;5.88;;;5.28;;
4517;SDS011;2271;49.464;11.070;2022-07-23T15:00:34;7.60;;;5.07;;
4517;SDS011;2271;49.464;11.070;2022-07-23T15:03:00;6.65;;;4.78;;
4517;SDS011;2271;49.464;11.070;2022-07-23T15:05:26;5.35;;;4.85;;
4517;SDS011;2271;49.464;11.070;2022-07-23T15:07:53;5.60;;;4.82;;
4517;SDS011;2271;49.464;11.070;2022-07-23T15:10:18;7.05;;;4.97;;
4517;SDS011;2271;49.464;11.070;2022-07-23T15:12:44;6.40;;;4.68;;
4517;SDS011;2271;49.464;11.070;2022-07-23T15:15:10;5.53;;;4.80;;
4517;SDS011;2271;49.464;11.070;2022-07-23T15:17:35;4.60;;;4.25;;
4517;SDS011;2271;49.464;11.070;2022-07-23T15:20:01;5.50;;;5.00;;
4517;SDS011;2271;49.464;11.070;2022-07-23T15:22:28;6.47;;;5.30;;
4517;SDS011;2271;49.464;11.070;2022-07-23T15:24:53;5.10;;;4.60;;
4517;SDS011;2271;49.464;11.070;2022-07-23T15:27:19;5.45;;;4.80;;
4517;SDS011;2271;49.464;11.070;2022-07-23T15:29:45;7.97;;;5.30;;
4517;SDS011;2271;49.464;11.070;2022-07-23T15:32:11;6.65;;;4.60;;
4517;SDS011;2271;49.464;11.070;2022-07-23T15:34:37;9.02;;;4.88;;
4517;SDS011;2271;49.464;11.070;2022-07-23T15:37:04;4.68;;;4.13;;
4517;SDS011;2271;49.464;11.070;2022-07-23T15:39:31;7.18;;;4.40;;
4517;SDS011;2271;49.464;11.070;2022-07-23T15:41:58;4.95;;;4.28;;
4517;SDS011;2271;49.464;11.070;2022-07-23T15:44:24;8.57;;;4.82;;
4517;SDS011;2271;49.464;11.070;2022-07-23T15:46:50;5.57;;;4.35;;
4517;SDS011;2271;49.464;11.070;2022-07-23T15:49:16;5.13;;;4.63;;